RYR86D EBCI-LFMU
Flight info
| Callsign | RYR86D |
|---|---|
| Flight time | 1h 29m |
| Altitude | 31000 |
| Route | CIV N872 LESDO DCT KOVIN DCT DUCRA UM728 RESMI UN857 DISAK DCT DIRMO DCT ETAMO DCT ADEKA DCT MOKDI DCT MEN J27 AFRIC |
| Aircraft | B738/M-SDE2E3FGHIRWXY/LB1 |
Departure
| Time | 2026-05-06 13:13 |
|---|---|
| Airport | Brussels South Charleroi Airport (EBCI) |
Arrival
| Time | 2026-05-06 14:42 |
|---|---|
| Airport | Béziers Vias airport (LFMU) |
| Time | Latitude | Longitude | Altitude | Speed | Heading |
|---|---|---|---|---|---|
| 2026-05-06 12:27 | 50.46099 | 4.46467 | 590 ft | 0 kts | 155° |
| 2026-05-06 12:28 | 50.46099 | 4.46468 | 584 ft | 0 kts | 155° |
| 2026-05-06 13:03 | 50.46104 | 4.46464 | 584 ft | 4 kts | 153° |
| 2026-05-06 13:03 | 50.46129 | 4.46450 | 584 ft | 4 kts | 167° |
| 2026-05-06 13:04 | 50.46155 | 4.46443 | 584 ft | 3 kts | 173° |
| 2026-05-06 13:04 | 50.46163 | 4.46441 | 584 ft | 0 kts | 173° |
| 2026-05-06 13:04 | 50.46163 | 4.46442 | 584 ft | 0 kts | 173° |
| 2026-05-06 13:05 | 50.46161 | 4.46442 | 584 ft | 1 kts | 169° |
| 2026-05-06 13:06 | 50.46158 | 4.46443 | 584 ft | 5 kts | 182° |
| 2026-05-06 13:06 | 50.46169 | 4.46436 | 584 ft | 3 kts | 238° |
| 2026-05-06 13:06 | 50.46167 | 4.46429 | 584 ft | 0 kts | 244° |
| 2026-05-06 13:07 | 50.46149 | 4.46371 | 585 ft | 10 kts | 245° |
| 2026-05-06 13:07 | 50.46129 | 4.46277 | 586 ft | 8 kts | 278° |
| 2026-05-06 13:07 | 50.46156 | 4.46244 | 586 ft | 0 kts | 340° |
| 2026-05-06 13:08 | 50.46204 | 4.46213 | 586 ft | 12 kts | 335° |
| 2026-05-06 13:09 | 50.46285 | 4.46152 | 585 ft | 13 kts | 334° |
| 2026-05-06 13:09 | 50.46351 | 4.46104 | 586 ft | 6 kts | 335° |
| 2026-05-06 13:09 | 50.46351 | 4.46103 | 586 ft | 0 kts | 335° |
| 2026-05-06 13:10 | 50.46352 | 4.46103 | 586 ft | 1 kts | 335° |
| 2026-05-06 13:10 | 50.46410 | 4.46131 | 585 ft | 12 kts | 58° |
| 2026-05-06 13:10 | 50.46447 | 4.46255 | 584 ft | 12 kts | 65° |
| 2026-05-06 13:11 | 50.46485 | 4.46385 | 582 ft | 14 kts | 65° |
| 2026-05-06 13:11 | 50.46523 | 4.46517 | 581 ft | 13 kts | 65° |
| 2026-05-06 13:11 | 50.46560 | 4.46645 | 579 ft | 13 kts | 65° |
| 2026-05-06 13:11 | 50.46596 | 4.46770 | 579 ft | 12 kts | 69° |
| 2026-05-06 13:12 | 50.46553 | 4.46866 | 579 ft | 12 kts | 159° |
| 2026-05-06 13:12 | 50.46473 | 4.46890 | 580 ft | 12 kts | 193° |
| 2026-05-06 13:12 | 50.46417 | 4.46762 | 579 ft | 33 kts | 246° |
| 2026-05-06 13:12 | 50.46189 | 4.45979 | 588 ft | 121 kts | 245° |
| 2026-05-06 13:13 | 50.45755 | 4.44468 | 833 ft | 168 kts | 248° |
| 2026-05-06 13:13 | 50.45242 | 4.42746 | 1690 ft | 186 kts | 249° |
| 2026-05-06 13:13 | 50.44674 | 4.40807 | 2498 ft | 205 kts | 249° |
| 2026-05-06 13:13 | 50.44064 | 4.38712 | 3196 ft | 212 kts | 249° |
| 2026-05-06 13:14 | 50.43452 | 4.36540 | 3703 ft | 224 kts | 249° |
| 2026-05-06 13:14 | 50.42804 | 4.34249 | 4106 ft | 243 kts | 248° |
| 2026-05-06 13:14 | 50.42087 | 4.31755 | 4669 ft | 253 kts | 248° |
| 2026-05-06 13:14 | 50.41337 | 4.29117 | 5180 ft | 273 kts | 248° |
| 2026-05-06 13:15 | 50.40821 | 4.26245 | 6061 ft | 274 kts | 274° |
| 2026-05-06 13:15 | 50.41300 | 4.23420 | 7028 ft | 268 kts | 300° |
| 2026-05-06 13:15 | 50.42239 | 4.20914 | 7828 ft | 273 kts | 304° |
| 2026-05-06 13:15 | 50.43281 | 4.18384 | 8704 ft | 276 kts | 304° |
| 2026-05-06 13:16 | 50.44335 | 4.15848 | 9600 ft | 279 kts | 303° |
| 2026-05-06 13:16 | 50.45403 | 4.13256 | 10354 ft | 286 kts | 303° |
| 2026-05-06 13:16 | 50.46517 | 4.10526 | 10643 ft | 309 kts | 303° |
| 2026-05-06 13:16 | 50.47716 | 4.07564 | 10955 ft | 330 kts | 303° |
| 2026-05-06 13:17 | 50.48945 | 4.04508 | 11582 ft | 338 kts | 303° |
| 2026-05-06 13:17 | 50.50204 | 4.01367 | 12383 ft | 341 kts | 303° |
| 2026-05-06 13:17 | 50.51474 | 3.98191 | 13193 ft | 345 kts | 303° |
| 2026-05-06 13:17 | 50.52768 | 3.94948 | 13880 ft | 351 kts | 303° |
| 2026-05-06 13:18 | 50.53940 | 3.91570 | 14608 ft | 354 kts | 289° |
| 2026-05-06 13:18 | 50.54321 | 3.87797 | 15416 ft | 355 kts | 268° |
| 2026-05-06 13:18 | 50.53804 | 3.83982 | 16117 ft | 361 kts | 247° |
| 2026-05-06 13:18 | 50.52410 | 3.80684 | 16833 ft | 366 kts | 226° |
| 2026-05-06 13:19 | 50.50367 | 3.78359 | 17569 ft | 370 kts | 207° |
| 2026-05-06 13:19 | 50.48002 | 3.76694 | 18291 ft | 374 kts | 204° |
| 2026-05-06 13:19 | 50.45582 | 3.75109 | 18837 ft | 379 kts | 204° |
| 2026-05-06 13:19 | 50.43130 | 3.73516 | 19416 ft | 382 kts | 204° |
| 2026-05-06 13:20 | 50.40666 | 3.71885 | 20018 ft | 385 kts | 204° |
| 2026-05-06 13:20 | 50.38223 | 3.70238 | 20603 ft | 388 kts | 204° |
| 2026-05-06 13:20 | 50.35737 | 3.68550 | 21173 ft | 391 kts | 204° |
| 2026-05-06 13:20 | 50.33227 | 3.66845 | 21722 ft | 395 kts | 204° |
| 2026-05-06 13:21 | 50.30690 | 3.65125 | 22269 ft | 398 kts | 204° |
| 2026-05-06 13:21 | 50.28127 | 3.63392 | 22811 ft | 402 kts | 204° |
| 2026-05-06 13:21 | 50.25576 | 3.61668 | 23334 ft | 405 kts | 204° |
| 2026-05-06 13:21 | 50.22975 | 3.59912 | 23796 ft | 408 kts | 204° |
| 2026-05-06 13:22 | 50.20356 | 3.58148 | 24274 ft | 410 kts | 204° |
| 2026-05-06 13:22 | 50.17719 | 3.56374 | 24752 ft | 412 kts | 203° |
| 2026-05-06 13:22 | 50.15082 | 3.54606 | 25203 ft | 414 kts | 203° |
| 2026-05-06 13:22 | 50.12427 | 3.52828 | 25636 ft | 416 kts | 203° |
| 2026-05-06 13:23 | 50.09795 | 3.51069 | 26154 ft | 415 kts | 203° |
| 2026-05-06 13:23 | 50.07152 | 3.49303 | 26829 ft | 411 kts | 202° |
| 2026-05-06 13:23 | 50.04527 | 3.47551 | 27460 ft | 409 kts | 202° |
| 2026-05-06 13:23 | 50.01907 | 3.45804 | 28022 ft | 408 kts | 202° |
| 2026-05-06 13:24 | 49.99310 | 3.44074 | 28613 ft | 406 kts | 202° |
| 2026-05-06 13:24 | 49.96748 | 3.42370 | 29204 ft | 404 kts | 202° |
| 2026-05-06 13:24 | 49.94164 | 3.40652 | 29804 ft | 401 kts | 201° |
| 2026-05-06 13:24 | 49.91607 | 3.38954 | 30299 ft | 400 kts | 201° |
| 2026-05-06 13:25 | 49.89044 | 3.37255 | 30711 ft | 399 kts | 202° |
| 2026-05-06 13:25 | 49.86478 | 3.35555 | 30882 ft | 403 kts | 202° |
| 2026-05-06 13:25 | 49.83882 | 3.33838 | 30888 ft | 406 kts | 202° |
| 2026-05-06 13:26 | 49.78718 | 3.30426 | 30881 ft | 404 kts | 202° |
| 2026-05-06 13:26 | 49.73571 | 3.27021 | 30880 ft | 399 kts | 202° |
| 2026-05-06 13:27 | 49.68444 | 3.23635 | 30892 ft | 402 kts | 202° |
| 2026-05-06 13:27 | 49.63300 | 3.20246 | 30896 ft | 405 kts | 202° |
| 2026-05-06 13:28 | 49.58098 | 3.16826 | 30894 ft | 407 kts | 201° |
| 2026-05-06 13:28 | 49.52912 | 3.13423 | 30889 ft | 406 kts | 201° |
| 2026-05-06 13:29 | 49.47758 | 3.09842 | 30881 ft | 406 kts | 210° |
| 2026-05-06 13:29 | 49.43026 | 3.05084 | 30891 ft | 405 kts | 212° |
| 2026-05-06 13:30 | 49.38371 | 3.00269 | 30893 ft | 405 kts | 212° |
| 2026-05-06 13:30 | 49.33667 | 2.95462 | 30915 ft | 406 kts | 212° |
| 2026-05-06 13:31 | 49.28957 | 2.90694 | 30893 ft | 408 kts | 212° |
| 2026-05-06 13:31 | 49.24216 | 2.85916 | 30897 ft | 407 kts | 212° |
| 2026-05-06 13:32 | 49.19509 | 2.81185 | 30912 ft | 408 kts | 212° |
| 2026-05-06 13:32 | 49.14777 | 2.76438 | 30901 ft | 409 kts | 212° |
| 2026-05-06 13:33 | 49.10003 | 2.71660 | 30905 ft | 409 kts | 212° |
| 2026-05-06 13:33 | 49.05267 | 2.66930 | 30913 ft | 410 kts | 212° |
| 2026-05-06 13:34 | 49.00573 | 2.62251 | 30916 ft | 411 kts | 212° |
| 2026-05-06 13:34 | 48.96577 | 2.58280 | 30915 ft | 411 kts | 212° |
| 2026-05-06 13:35 | 48.90977 | 2.52724 | 30913 ft | 413 kts | 212° |
| 2026-05-06 13:35 | 48.86976 | 2.48761 | 30912 ft | 413 kts | 212° |
| 2026-05-06 13:36 | 48.82138 | 2.43978 | 30914 ft | 414 kts | 212° |
| 2026-05-06 13:36 | 48.77330 | 2.39237 | 30913 ft | 414 kts | 212° |
| 2026-05-06 13:37 | 48.72486 | 2.34469 | 30912 ft | 414 kts | 212° |
| 2026-05-06 13:37 | 48.67682 | 2.29751 | 30907 ft | 414 kts | 212° |
| 2026-05-06 13:38 | 48.62851 | 2.25016 | 30914 ft | 413 kts | 212° |
| 2026-05-06 13:38 | 48.57993 | 2.20391 | 30898 ft | 412 kts | 206° |
| 2026-05-06 13:39 | 48.52619 | 2.17654 | 30922 ft | 410 kts | 191° |
| 2026-05-06 13:39 | 48.47018 | 2.15945 | 30906 ft | 410 kts | 191° |
| 2026-05-06 13:40 | 48.40514 | 2.13919 | 30907 ft | 410 kts | 192° |
| 2026-05-06 13:40 | 48.35875 | 2.12431 | 30905 ft | 409 kts | 192° |
| 2026-05-06 13:41 | 48.30302 | 2.10664 | 30903 ft | 407 kts | 189° |
| 2026-05-06 13:41 | 48.24695 | 2.10617 | 30914 ft | 405 kts | 171° |
| 2026-05-06 13:42 | 48.19117 | 2.11935 | 30916 ft | 404 kts | 171° |
| 2026-05-06 13:42 | 48.13592 | 2.13142 | 30926 ft | 402 kts | 173° |
| 2026-05-06 13:43 | 48.08020 | 2.13652 | 30933 ft | 400 kts | 178° |
| 2026-05-06 13:43 | 48.02459 | 2.13905 | 30933 ft | 398 kts | 178° |
| 2026-05-06 13:44 | 47.96957 | 2.14174 | 30939 ft | 397 kts | 178° |
| 2026-05-06 13:44 | 47.91433 | 2.14478 | 30939 ft | 396 kts | 178° |
| 2026-05-06 13:45 | 47.85943 | 2.14794 | 30946 ft | 396 kts | 178° |
| 2026-05-06 13:45 | 47.77690 | 2.15272 | 30939 ft | 398 kts | 177° |
| 2026-05-06 13:46 | 47.72146 | 2.15593 | 30925 ft | 398 kts | 177° |
| 2026-05-06 13:46 | 47.66627 | 2.15911 | 30933 ft | 397 kts | 177° |
| 2026-05-06 13:47 | 47.61091 | 2.16230 | 30921 ft | 397 kts | 177° |
| 2026-05-06 13:47 | 47.55573 | 2.16546 | 30923 ft | 397 kts | 177° |
| 2026-05-06 13:48 | 47.50079 | 2.16861 | 30919 ft | 396 kts | 177° |
| 2026-05-06 13:48 | 47.44556 | 2.17177 | 30920 ft | 396 kts | 177° |
| 2026-05-06 13:49 | 47.39068 | 2.17490 | 30923 ft | 395 kts | 177° |
| 2026-05-06 13:49 | 47.33548 | 2.17804 | 30923 ft | 395 kts | 177° |
| 2026-05-06 13:50 | 47.28062 | 2.18116 | 30916 ft | 397 kts | 177° |
| 2026-05-06 13:50 | 47.22533 | 2.18429 | 30930 ft | 397 kts | 177° |
| 2026-05-06 13:51 | 47.16998 | 2.18743 | 30917 ft | 399 kts | 177° |
| 2026-05-06 13:51 | 47.11475 | 2.19056 | 30921 ft | 399 kts | 176° |
| 2026-05-06 13:52 | 47.06066 | 2.20719 | 30914 ft | 398 kts | 158° |
| 2026-05-06 13:52 | 47.00930 | 2.23802 | 30907 ft | 398 kts | 156° |
| 2026-05-06 13:53 | 46.95823 | 2.26872 | 30907 ft | 396 kts | 157° |
| 2026-05-06 13:53 | 46.90749 | 2.29857 | 30916 ft | 394 kts | 157° |
| 2026-05-06 13:54 | 46.85651 | 2.32834 | 30918 ft | 394 kts | 158° |
| 2026-05-06 13:54 | 46.80837 | 2.36653 | 30920 ft | 394 kts | 146° |
| 2026-05-06 13:55 | 46.76275 | 2.41068 | 30916 ft | 397 kts | 146° |
| 2026-05-06 13:55 | 46.71642 | 2.45546 | 30910 ft | 400 kts | 146° |
| 2026-05-06 13:56 | 46.67001 | 2.49982 | 30908 ft | 402 kts | 146° |
| 2026-05-06 13:56 | 46.62306 | 2.54440 | 30912 ft | 402 kts | 147° |
| 2026-05-06 13:57 | 46.57604 | 2.58889 | 30901 ft | 402 kts | 147° |
| 2026-05-06 13:57 | 46.52916 | 2.63315 | 30904 ft | 401 kts | 147° |
| 2026-05-06 13:58 | 46.48257 | 2.67705 | 30899 ft | 400 kts | 147° |
| 2026-05-06 13:58 | 46.43582 | 2.72102 | 30893 ft | 399 kts | 147° |
| 2026-05-06 13:59 | 46.38920 | 2.76477 | 30897 ft | 398 kts | 147° |
| 2026-05-06 13:59 | 46.34284 | 2.80819 | 30895 ft | 397 kts | 147° |
| 2026-05-06 14:00 | 46.29655 | 2.85146 | 30887 ft | 397 kts | 147° |
| 2026-05-06 14:00 | 46.24984 | 2.89502 | 30898 ft | 400 kts | 147° |
| 2026-05-06 14:01 | 46.20319 | 2.93844 | 30903 ft | 401 kts | 148° |
| 2026-05-06 14:01 | 46.15616 | 2.98214 | 30891 ft | 402 kts | 148° |
| 2026-05-06 14:02 | 46.10907 | 3.02578 | 30880 ft | 401 kts | 148° |
| 2026-05-06 14:02 | 46.06243 | 3.06894 | 30878 ft | 399 kts | 148° |
| 2026-05-06 14:03 | 46.01574 | 3.11208 | 30879 ft | 397 kts | 148° |
| 2026-05-06 14:03 | 45.96905 | 3.15470 | 30876 ft | 395 kts | 152° |
| 2026-05-06 14:04 | 45.94387 | 3.17026 | 30892 ft | 394 kts | 163° |
| 2026-05-06 14:04 | 45.91750 | 3.17892 | 30884 ft | 393 kts | 173° |
| 2026-05-06 14:04 | 45.86274 | 3.18042 | 30882 ft | 394 kts | 181° |
| 2026-05-06 14:05 | 45.80776 | 3.17886 | 30042 ft | 396 kts | 181° |
| 2026-05-06 14:05 | 45.78043 | 3.17818 | 31043 ft | 400 kts | 181° |
| 2026-05-06 14:05 | 45.75235 | 3.17759 | 30952 ft | 406 kts | 181° |
| 2026-05-06 14:06 | 45.69593 | 3.17668 | 30888 ft | 403 kts | 181° |
| 2026-05-06 14:06 | 45.64018 | 3.17592 | 30878 ft | 397 kts | 181° |
| 2026-05-06 14:07 | 45.58506 | 3.17520 | 30885 ft | 398 kts | 181° |
| 2026-05-06 14:07 | 45.52949 | 3.17447 | 30890 ft | 399 kts | 182° |
| 2026-05-06 14:08 | 45.47378 | 3.17374 | 30887 ft | 400 kts | 182° |
| 2026-05-06 14:08 | 45.41800 | 3.17301 | 30884 ft | 400 kts | 182° |
| 2026-05-06 14:09 | 45.36252 | 3.17229 | 30888 ft | 400 kts | 182° |
| 2026-05-06 14:09 | 45.30689 | 3.17156 | 30885 ft | 399 kts | 183° |
| 2026-05-06 14:10 | 45.25144 | 3.17083 | 30892 ft | 398 kts | 183° |
| 2026-05-06 14:10 | 45.19639 | 3.17012 | 30895 ft | 397 kts | 183° |
| 2026-05-06 14:11 | 45.14115 | 3.16939 | 30889 ft | 396 kts | 183° |
| 2026-05-06 14:11 | 45.08600 | 3.16868 | 30895 ft | 395 kts | 184° |
| 2026-05-06 14:12 | 45.03134 | 3.16797 | 30898 ft | 394 kts | 184° |
| 2026-05-06 14:12 | 44.97702 | 3.16729 | 30885 ft | 381 kts | 184° |
| 2026-05-06 14:13 | 44.92465 | 3.16659 | 30902 ft | 376 kts | 184° |
| 2026-05-06 14:13 | 44.87212 | 3.16580 | 30596 ft | 374 kts | 184° |
| 2026-05-06 14:14 | 44.84625 | 3.16544 | 30275 ft | 370 kts | 185° |
| 2026-05-06 14:14 | 44.82084 | 3.16507 | 29942 ft | 367 kts | 185° |
| 2026-05-06 14:14 | 44.79536 | 3.16471 | 29534 ft | 364 kts | 185° |
| 2026-05-06 14:14 | 44.77016 | 3.16435 | 29178 ft | 360 kts | 185° |
| 2026-05-06 14:15 | 44.74506 | 3.16399 | 28803 ft | 357 kts | 185° |
| 2026-05-06 14:15 | 44.72068 | 3.16364 | 28435 ft | 353 kts | 185° |
| 2026-05-06 14:15 | 44.69626 | 3.16329 | 28083 ft | 349 kts | 185° |
| 2026-05-06 14:15 | 44.67200 | 3.16293 | 27720 ft | 347 kts | 185° |
| 2026-05-06 14:16 | 44.64792 | 3.16259 | 27377 ft | 343 kts | 185° |
| 2026-05-06 14:16 | 44.62407 | 3.16225 | 27014 ft | 341 kts | 186° |
| 2026-05-06 14:16 | 44.60062 | 3.15971 | 26645 ft | 334 kts | 195° |
| 2026-05-06 14:16 | 44.57834 | 3.15250 | 26239 ft | 331 kts | 198° |
| 2026-05-06 14:17 | 44.55608 | 3.14444 | 25886 ft | 329 kts | 199° |
| 2026-05-06 14:17 | 44.53396 | 3.13633 | 25541 ft | 327 kts | 199° |
| 2026-05-06 14:17 | 44.51200 | 3.12831 | 25198 ft | 325 kts | 199° |
| 2026-05-06 14:17 | 44.49011 | 3.12040 | 24865 ft | 324 kts | 199° |
| 2026-05-06 14:18 | 44.46832 | 3.11258 | 24525 ft | 322 kts | 199° |
| 2026-05-06 14:18 | 44.44660 | 3.10482 | 24170 ft | 321 kts | 199° |
| 2026-05-06 14:18 | 44.42530 | 3.09725 | 23873 ft | 319 kts | 199° |
| 2026-05-06 14:18 | 44.40379 | 3.08963 | 23549 ft | 317 kts | 198° |
| 2026-05-06 14:19 | 44.38240 | 3.08206 | 23166 ft | 316 kts | 198° |
| 2026-05-06 14:19 | 44.36113 | 3.07455 | 22806 ft | 314 kts | 198° |
| 2026-05-06 14:19 | 44.33992 | 3.06706 | 22468 ft | 312 kts | 198° |
| 2026-05-06 14:19 | 44.31893 | 3.05966 | 22162 ft | 309 kts | 198° |
| 2026-05-06 14:20 | 44.29808 | 3.05232 | 21816 ft | 308 kts | 198° |
| 2026-05-06 14:20 | 44.27769 | 3.04514 | 21499 ft | 305 kts | 198° |
| 2026-05-06 14:20 | 44.25709 | 3.03789 | 21184 ft | 303 kts | 198° |
| 2026-05-06 14:20 | 44.23664 | 3.03069 | 20869 ft | 302 kts | 198° |
| 2026-05-06 14:21 | 44.21628 | 3.02354 | 20552 ft | 301 kts | 198° |
| 2026-05-06 14:21 | 44.19599 | 3.01640 | 20240 ft | 301 kts | 198° |
| 2026-05-06 14:21 | 44.17589 | 3.00934 | 19928 ft | 302 kts | 198° |
| 2026-05-06 14:21 | 44.15536 | 3.00213 | 19622 ft | 307 kts | 197° |
| 2026-05-06 14:22 | 44.13439 | 2.99477 | 19303 ft | 313 kts | 197° |
| 2026-05-06 14:22 | 44.11313 | 2.98733 | 18965 ft | 314 kts | 197° |
| 2026-05-06 14:22 | 44.09200 | 2.97994 | 18653 ft | 311 kts | 197° |
| 2026-05-06 14:22 | 44.07100 | 2.97259 | 18329 ft | 311 kts | 197° |
| 2026-05-06 14:23 | 44.05006 | 2.96526 | 17973 ft | 309 kts | 197° |
| 2026-05-06 14:23 | 44.02950 | 2.95807 | 17634 ft | 307 kts | 197° |
| 2026-05-06 14:23 | 44.00874 | 2.95081 | 17297 ft | 305 kts | 197° |
| 2026-05-06 14:23 | 43.98822 | 2.94364 | 16988 ft | 302 kts | 197° |
| 2026-05-06 14:24 | 43.96787 | 2.93653 | 16663 ft | 300 kts | 197° |
| 2026-05-06 14:24 | 43.94790 | 2.92956 | 16355 ft | 298 kts | 198° |
| 2026-05-06 14:24 | 43.92780 | 2.92255 | 16046 ft | 296 kts | 198° |
| 2026-05-06 14:24 | 43.90786 | 2.91559 | 15747 ft | 294 kts | 198° |
| 2026-05-06 14:25 | 43.88800 | 2.90866 | 15429 ft | 293 kts | 198° |
| 2026-05-06 14:25 | 43.87494 | 2.90411 | 15234 ft | 292 kts | 198° |
| 2026-05-06 14:25 | 43.85518 | 2.89722 | 14928 ft | 291 kts | 198° |
| 2026-05-06 14:25 | 43.82914 | 2.88817 | 14524 ft | 290 kts | 198° |
| 2026-05-06 14:26 | 43.81589 | 2.88356 | 14314 ft | 290 kts | 198° |
| 2026-05-06 14:26 | 43.79640 | 2.87679 | 13993 ft | 290 kts | 197° |
| 2026-05-06 14:26 | 43.77615 | 2.87479 | 13640 ft | 298 kts | 175° |
| 2026-05-06 14:26 | 43.75665 | 2.88437 | 13275 ft | 305 kts | 153° |
| 2026-05-06 14:27 | 43.73881 | 2.90026 | 12954 ft | 305 kts | 150° |
| 2026-05-06 14:27 | 43.72129 | 2.91689 | 12603 ft | 304 kts | 149° |
| 2026-05-06 14:27 | 43.70396 | 2.93348 | 12297 ft | 302 kts | 149° |
| 2026-05-06 14:27 | 43.68665 | 2.94996 | 11982 ft | 301 kts | 149° |
| 2026-05-06 14:28 | 43.66956 | 2.96611 | 11670 ft | 300 kts | 149° |
| 2026-05-06 14:28 | 43.65235 | 2.98228 | 11363 ft | 298 kts | 149° |
| 2026-05-06 14:28 | 43.63515 | 2.99834 | 11064 ft | 296 kts | 149° |
| 2026-05-06 14:28 | 43.61808 | 3.01426 | 10744 ft | 295 kts | 149° |
| 2026-05-06 14:29 | 43.60110 | 3.03006 | 10444 ft | 292 kts | 150° |
| 2026-05-06 14:29 | 43.58448 | 3.04551 | 10151 ft | 291 kts | 149° |
| 2026-05-06 14:29 | 43.56782 | 3.06100 | 9999 ft | 285 kts | 149° |
| 2026-05-06 14:29 | 43.55145 | 3.07618 | 9724 ft | 284 kts | 149° |
| 2026-05-06 14:30 | 43.53507 | 3.09137 | 9414 ft | 283 kts | 149° |
| 2026-05-06 14:30 | 43.51875 | 3.10647 | 9122 ft | 282 kts | 149° |
| 2026-05-06 14:30 | 43.50248 | 3.12152 | 8830 ft | 281 kts | 149° |
| 2026-05-06 14:30 | 43.48644 | 3.13633 | 8543 ft | 281 kts | 149° |
| 2026-05-06 14:31 | 43.47041 | 3.15182 | 8258 ft | 283 kts | 140° |
| 2026-05-06 14:31 | 43.45885 | 3.17397 | 7943 ft | 288 kts | 112° |
| 2026-05-06 14:31 | 43.45484 | 3.20076 | 7727 ft | 285 kts | 95° |
| 2026-05-06 14:31 | 43.45363 | 3.22787 | 7523 ft | 283 kts | 92° |
| 2026-05-06 14:32 | 43.45277 | 3.25471 | 7385 ft | 277 kts | 92° |
| 2026-05-06 14:32 | 43.45202 | 3.28079 | 7310 ft | 268 kts | 92° |
| 2026-05-06 14:32 | 43.45130 | 3.30589 | 7290 ft | 259 kts | 92° |
| 2026-05-06 14:32 | 43.45058 | 3.33052 | 7272 ft | 257 kts | 92° |
| 2026-05-06 14:33 | 43.44984 | 3.35592 | 7041 ft | 274 kts | 92° |
| 2026-05-06 14:33 | 43.44908 | 3.38209 | 6771 ft | 278 kts | 92° |
| 2026-05-06 14:33 | 43.44828 | 3.40882 | 6448 ft | 279 kts | 92° |
| 2026-05-06 14:33 | 43.44751 | 3.43548 | 6189 ft | 277 kts | 92° |
| 2026-05-06 14:34 | 43.44676 | 3.46190 | 5991 ft | 276 kts | 92° |
| 2026-05-06 14:34 | 43.44598 | 3.48826 | 5764 ft | 274 kts | 92° |
| 2026-05-06 14:34 | 43.44519 | 3.51392 | 5559 ft | 271 kts | 92° |
| 2026-05-06 14:34 | 43.44439 | 3.53973 | 5346 ft | 269 kts | 92° |
| 2026-05-06 14:35 | 43.44357 | 3.56535 | 5146 ft | 267 kts | 92° |
| 2026-05-06 14:35 | 43.44275 | 3.59083 | 4949 ft | 265 kts | 92° |
| 2026-05-06 14:35 | 43.44194 | 3.61596 | 4801 ft | 261 kts | 92° |
| 2026-05-06 14:35 | 43.43924 | 3.64049 | 4553 ft | 260 kts | 114° |
| 2026-05-06 14:36 | 43.42887 | 3.66011 | 4361 ft | 251 kts | 144° |
| 2026-05-06 14:36 | 43.41345 | 3.66956 | 4205 ft | 241 kts | 175° |
| 2026-05-06 14:36 | 43.39722 | 3.66821 | 4104 ft | 228 kts | 207° |
| 2026-05-06 14:36 | 43.38529 | 3.65592 | 4042 ft | 210 kts | 228° |
| 2026-05-06 14:37 | 43.37558 | 3.64165 | 3911 ft | 199 kts | 231° |
| 2026-05-06 14:37 | 43.36642 | 3.62774 | 3770 ft | 194 kts | 230° |
| 2026-05-06 14:37 | 43.35739 | 3.61415 | 3614 ft | 190 kts | 230° |
| 2026-05-06 14:37 | 43.34857 | 3.60100 | 3438 ft | 189 kts | 230° |
| 2026-05-06 14:38 | 43.33969 | 3.58786 | 3257 ft | 187 kts | 230° |
| 2026-05-06 14:38 | 43.33088 | 3.57487 | 3074 ft | 186 kts | 230° |
| 2026-05-06 14:38 | 43.32199 | 3.56179 | 2872 ft | 186 kts | 225° |
| 2026-05-06 14:38 | 43.31352 | 3.54853 | 2675 ft | 186 kts | 246° |
| 2026-05-06 14:39 | 43.31316 | 3.53140 | 2544 ft | 175 kts | 285° |
| 2026-05-06 14:39 | 43.31531 | 3.51502 | 2488 ft | 172 kts | 275° |
| 2026-05-06 14:39 | 43.31610 | 3.49917 | 2355 ft | 163 kts | 274° |
| 2026-05-06 14:39 | 43.31619 | 3.48364 | 1963 ft | 165 kts | 269° |
| 2026-05-06 14:40 | 43.31648 | 3.46827 | 1708 ft | 156 kts | 270° |
| 2026-05-06 14:40 | 43.31710 | 3.45362 | 1326 ft | 147 kts | 272° |
| 2026-05-06 14:40 | 43.31788 | 3.44059 | 1236 ft | 136 kts | 276° |
| 2026-05-06 14:40 | 43.31931 | 3.42759 | 1024 ft | 139 kts | 274° |
| 2026-05-06 14:41 | 43.31998 | 3.41434 | 806 ft | 139 kts | 274° |
| 2026-05-06 14:41 | 43.32057 | 3.40121 | 603 ft | 139 kts | 276° |
| 2026-05-06 14:41 | 43.32123 | 3.38809 | 407 ft | 139 kts | 278° |
| 2026-05-06 14:41 | 43.32212 | 3.37517 | 228 ft | 134 kts | 279° |
| 2026-05-06 14:42 | 43.32289 | 3.36245 | 54 ft | 131 kts | 277° |
| 2026-05-06 14:42 | 43.32341 | 3.35367 | 54 ft | 41 kts | 274° |
| 2026-05-06 14:42 | 43.32348 | 3.35182 | 56 ft | 6 kts | 248° |
| 2026-05-06 14:42 | 43.32306 | 3.35176 | 56 ft | 6 kts | 179° |
| 2026-05-06 14:43 | 43.32262 | 3.35177 | 56 ft | 6 kts | 179° |
| 2026-05-06 14:43 | 43.32220 | 3.35177 | 56 ft | 6 kts | 182° |
| 2026-05-06 14:43 | 43.32182 | 3.35189 | 51 ft | 6 kts | 126° |
| 2026-05-06 14:43 | 43.32180 | 3.35247 | 55 ft | 6 kts | 90° |
| 2026-05-06 14:44 | 43.32178 | 3.35304 | 55 ft | 6 kts | 94° |
| 2026-05-06 14:44 | 43.32161 | 3.35355 | 49 ft | 6 kts | 115° |
| 2026-05-06 14:44 | 43.32157 | 3.35408 | 55 ft | 4 kts | 103° |
| 2026-05-06 14:45 | 43.32129 | 3.35422 | 53 ft | 0 kts | 186° |